Time;durP1;ratioP1;P1;durP2;ratioP2;P2;SDS_P1;SDS_P2;PMS_P1;PMS_P2;Temp;Humidity;BMP_temperature;BMP_pressure;BME280_temperature;BME280_humidity;BME280_pressure;Samples;Min_cycle;Max_cycle;Signal;HPM_P1;HPM_P2
2023/08/21 00:03:43;;;;;;;18.20;14.40;;;;;;;19.95;100.00;99566.78;272157;1271;22641;-87
2023/08/21 00:09:46;;;;;;;19.40;13.70;;;;;;;19.92;100.00;99564.23;272553;1269;23698;-85
2023/08/21 00:15:48;;;;;;;21.00;16.20;;;;;;;19.84;100.00;99562.70;272414;1269;23035;-86
2023/08/21 00:21:50;;;;;;;19.00;13.40;;;;;;;19.81;100.00;99559.49;272830;1269;22149;-87
2023/08/21 00:27:52;;;;;;;19.40;15.90;;;;;;;19.81;100.00;99559.02;272734;1269;23118;-86
2023/08/21 00:33:54;;;;;;;19.40;15.50;;;;;;;19.78;100.00;99556.46;272428;1269;22417;-86
2023/08/21 00:39:55;;;;;;;17.30;13.10;;;;;;;19.74;100.00;99558.11;272423;1269;23822;-86
2023/08/21 00:45:58;;;;;;;16.20;14.60;;;;;;;19.73;100.00;99557.73;272640;1269;22312;-86
2023/08/21 00:52:00;;;;;;;18.80;14.30;;;;;;;19.67;100.00;99550.55;272516;1269;22569;-86
2023/08/21 00:58:09;;;;;;;19.40;15.80;;;;;;;19.58;100.00;99545.92;272606;1269;22296;-86
2023/08/21 01:04:13;;;;;;;16.50;14.10;;;;;;;19.49;100.00;99546.79;272347;1269;23095;-88
2023/08/21 01:10:24;;;;;;;17.80;15.40;;;;;;;19.44;100.00;99552.42;272671;1267;22404;-86
2023/08/21 01:16:28;;;;;;;19.60;16.00;;;;;;;19.39;100.00;99555.84;272472;1269;23022;-87
2023/08/21 01:22:37;;;;;;;20.60;18.50;;;;;;;19.33;100.00;99556.80;272516;1269;23054;-86
2023/08/21 01:28:39;;;;;;;21.40;17.70;;;;;;;19.28;100.00;99550.20;273143;1269;22319;-85
2023/08/21 01:34:41;;;;;;;20.50;16.50;;;;;;;19.19;100.00;99550.55;273169;1269;22150;-85
2023/08/21 01:40:43;;;;;;;16.80;13.90;;;;;;;19.16;100.00;99551.41;272693;1269;22488;-85
2023/08/21 01:46:46;;;;;;;19.40;16.00;;;;;;;19.13;100.00;99546.29;269747;1270;23489;-86
2023/08/21 01:52:48;;;;;;;20.30;15.90;;;;;;;19.05;100.00;99546.58;270643;1269;23530;-87
2023/08/21 01:58:50;;;;;;;19.90;15.50;;;;;;;19.06;100.00;99549.98;270058;1269;22552;-87
2023/08/21 02:04:54;;;;;;;20.90;16.40;;;;;;;19.05;100.00;99548.70;269709;1269;22939;-86
2023/08/21 02:10:56;;;;;;;19.70;15.80;;;;;;;18.99;100.00;99551.71;272762;1271;23690;-86
2023/08/21 02:16:58;;;;;;;19.30;15.90;;;;;;;18.96;100.00;99544.00;270864;1272;22791;-86
2023/08/21 02:23:00;;;;;;;16.70;14.40;;;;;;;18.90;100.00;99543.45;268676;1272;23311;-88
2023/08/21 02:29:03;;;;;;;18.30;15.10;;;;;;;18.82;100.00;99549.26;272292;1272;23246;-87
2023/08/21 02:35:06;;;;;;;15.80;14.20;;;;;;;18.81;100.00;99552.36;271426;1272;22217;-87
2023/08/21 02:41:08;;;;;;;18.40;13.90;;;;;;;18.81;100.00;99555.06;272609;1272;22221;-88
2023/08/21 02:47:11;;;;;;;19.10;15.20;;;;;;;18.82;100.00;99547.91;272535;1272;22332;-88
2023/08/21 02:53:13;;;;;;;18.20;15.70;;;;;;;18.74;100.00;99547.77;270070;1270;22221;-87
2023/08/21 02:59:15;;;;;;;18.70;16.70;;;;;;;18.64;100.00;99541.64;272724;1272;22289;-86
2023/08/21 03:05:17;;;;;;;17.70;15.80;;;;;;;18.61;100.00;99538.29;270828;1263;23432;-87
2023/08/21 03:11:18;;;;;;;17.30;13.90;;;;;;;18.56;100.00;99534.61;273212;1269;23086;-86
2023/08/21 03:17:20;;;;;;;19.50;14.40;;;;;;;18.53;100.00;99535.69;270893;1269;22333;-86
2023/08/21 03:23:22;;;;;;;30.40;13.50;;;;;;;18.55;100.00;99532.41;269874;1269;22514;-87
2023/08/21 03:29:24;;;;;;;17.60;14.60;;;;;;;18.53;100.00;99527.45;271062;1261;22307;-86
2023/08/21 03:35:28;;;;;;;19.00;15.00;;;;;;;18.55;100.00;99527.58;269947;1270;22615;-86
2023/08/21 03:41:30;;;;;;;18.60;15.50;;;;;;;18.56;100.00;99532.88;270549;1269;22324;-86
2023/08/21 03:47:32;;;;;;;16.60;14.70;;;;;;;18.55;100.00;99535.52;273048;1269;22558;-87
2023/08/21 03:53:38;;;;;;;17.10;14.50;;;;;;;18.56;100.00;99533.03;273004;1269;22994;-87
2023/08/21 03:59:39;;;;;;;16.00;14.30;;;;;;;18.58;100.00;99527.70;272682;1269;22683;-85
2023/08/21 04:05:41;;;;;;;17.60;15.10;;;;;;;18.55;100.00;99521.33;272328;1269;23187;-86
2023/08/21 04:11:43;;;;;;;14.50;12.90;;;;;;;18.51;100.00;99516.70;272668;1267;181197;-87
2023/08/21 04:17:45;;;;;;;16.10;14.00;;;;;;;18.48;100.00;99517.92;272465;1270;22311;-86
2023/08/21 04:23:47;;;;;;;22.90;16.80;;;;;;;18.43;100.00;99521.87;272011;1269;22145;-87
2023/08/21 04:29:49;;;;;;;17.50;15.70;;;;;;;18.40;100.00;99522.61;271390;1266;23104;-88
2023/08/21 04:35:52;;;;;;;18.50;16.40;;;;;;;18.50;100.00;99528.04;273237;1269;23106;-86
2023/08/21 04:41:54;;;;;;;20.30;15.80;;;;;;;18.63;100.00;99532.16;273199;1269;22232;-86
2023/08/21 04:47:56;;;;;;;18.90;17.00;;;;;;;18.78;100.00;99536.48;272622;1269;22339;-86
2023/08/21 04:53:59;;;;;;;19.90;17.00;;;;;;;18.91;100.00;99542.00;272206;1269;22460;-86
2023/08/21 05:00:03;;;;;;;18.00;15.60;;;;;;;19.05;100.00;99535.39;272984;1267;22342;-86
2023/08/21 05:06:09;;;;;;;18.70;15.50;;;;;;;19.20;100.00;99534.61;272579;1269;23168;-86
2023/08/21 05:12:12;;;;;;;16.60;14.70;;;;;;;19.37;100.00;99538.64;270870;1269;25307;-86
2023/08/21 05:18:14;;;;;;;17.70;15.40;;;;;;;19.55;100.00;99547.16;271660;1269;22233;-86
2023/08/21 05:24:16;;;;;;;16.50;14.40;;;;;;;19.78;100.00;99553.37;273098;1260;23376;-87
2023/08/21 05:30:22;;;;;;;19.50;14.80;;;;;;;20.01;100.00;99551.77;273055;1269;22405;-86
2023/08/21 05:36:24;;;;;;;20.00;15.10;;;;;;;20.22;100.00;99543.77;273244;1267;22287;-86
2023/08/21 05:42:26;;;;;;;23.70;16.50;;;;;;;20.45;100.00;99541.73;272997;1269;22826;-87
2023/08/21 05:48:29;;;;;;;28.20;16.20;;;;;;;20.64;100.00;99543.42;272940;1269;23889;-86
2023/08/21 05:54:31;;;;;;;25.70;17.90;;;;;;;20.87;100.00;99549.30;273058;1269;22439;-86
2023/08/21 06:00:38;;;;;;;18.10;15.70;;;;;;;21.14;100.00;99551.33;273220;1269;22341;-87
2023/08/21 06:06:40;;;;;;;18.90;15.90;;;;;;;21.41;100.00;99552.61;273297;1269;23481;-87
2023/08/21 06:12:42;;;;;;;14.30;12.80;;;;;;;21.69;100.00;99549.15;273255;1269;22785;-87
2023/08/21 06:18:44;;;;;;;14.40;13.00;;;;;;;21.90;100.00;99555.64;273112;1269;22811;-87
2023/08/21 06:24:46;;;;;;;13.60;12.10;;;;;;;22.10;100.00;99550.33;271946;1269;22523;-88
2023/08/21 06:30:58;;;;;;;13.90;12.10;;;;;;;22.31;100.00;99541.63;269964;1259;22556;-87
2023/08/21 06:37:00;;;;;;;14.50;12.60;;;;;;;22.49;100.00;99542.66;272598;1269;23120;-87
2023/08/21 06:43:05;;;;;;;13.50;11.70;;;;;;;22.78;100.00;99552.89;273149;1269;22177;-87
2023/08/21 06:49:08;;;;;;;13.00;11.70;;;;;;;23.03;100.00;99555.91;273011;1269;22416;-86
2023/08/21 06:55:10;;;;;;;12.90;11.50;;;;;;;23.19;100.00;99569.84;273232;1269;23197;-87
2023/08/21 07:01:12;;;;;;;16.40;12.80;;;;;;;23.25;100.00;99572.80;273278;1269;22338;-87
2023/08/21 07:07:13;;;;;;;17.70;12.90;;;;;;;23.32;100.00;99577.45;273381;1266;22336;-89
2023/08/21 07:13:15;;;;;;;16.30;14.50;;;;;;;23.33;100.00;99583.82;273241;1269;22294;-88
2023/08/21 07:19:17;;;;;;;15.40;13.50;;;;;;;23.28;100.00;99584.55;273265;1269;22328;-87
2023/08/21 07:25:19;;;;;;;16.90;14.80;;;;;;;23.32;100.00;99582.66;273201;1269;23285;-87
2023/08/21 07:31:22;;;;;;;20.00;13.60;;;;;;;23.39;100.00;99589.30;273182;1269;22541;-87
2023/08/21 07:37:24;;;;;;;22.80;15.10;;;;;;;23.53;100.00;99591.72;271756;1269;22215;-88
2023/08/21 07:43:26;;;;;;;30.80;19.90;;;;;;;23.71;100.00;99589.77;273018;1269;22409;-87
2023/08/21 07:49:28;;;;;;;31.90;19.80;;;;;;;23.86;100.00;99595.20;273125;1269;23237;-87
2023/08/21 07:55:30;;;;;;;27.10;18.40;;;;;;;24.07;100.00;99593.05;272891;1269;22176;-87
2023/08/21 08:01:32;;;;;;;19.50;14.30;;;;;;;24.40;100.00;99595.71;272400;1269;22158;-88
2023/08/21 08:07:34;;;;;;;18.30;13.20;;;;;;;24.88;100.00;99599.20;273018;1269;22355;-86
2023/08/21 08:13:39;;;;;;;23.80;13.80;;;;;;;25.19;100.00;99614.36;272712;1269;22523;-87
2023/08/21 08:19:43;;;;;;;14.40;12.60;;;;;;;25.50;100.00;99618.71;271800;1269;25236;-87
2023/08/21 08:25:45;;;;;;;16.90;13.80;;;;;;;25.84;100.00;99621.71;271108;1269;22666;-86
2023/08/21 08:31:47;;;;;;;16.10;14.40;;;;;;;26.10;100.00;99623.39;270224;1269;24410;-89
2023/08/21 08:37:49;;;;;;;14.40;12.80;;;;;;;26.19;100.00;99638.88;270768;1269;22657;-86
2023/08/21 08:43:54;;;;;;;18.00;12.50;;;;;;;26.20;99.98;99644.31;270821;1269;23785;-88
2023/08/21 08:49:56;;;;;;;15.90;12.20;;;;;;;26.22;99.23;99646.46;272929;1269;22325;-88
2023/08/21 08:55:58;;;;;;;17.40;12.80;;;;;;;26.15;97.98;99646.09;272991;1269;22286;-89
2023/08/21 09:02:00;;;;;;;15.60;12.20;;;;;;;26.12;96.87;99641.98;273138;1269;22322;-87
2023/08/21 09:08:04;;;;;;;16.20;13.20;;;;;;;26.18;96.91;99641.14;273319;1269;22313;-86
2023/08/21 09:14:06;;;;;;;17.10;13.50;;;;;;;26.30;96.30;99641.86;273146;1261;23228;-87
2023/08/21 09:20:10;;;;;;;20.20;14.70;;;;;;;26.38;95.39;99639.43;271289;1269;23042;-87
2023/08/21 09:26:20;;;;;;;23.00;15.80;;;;;;;26.45;94.81;99637.04;270773;1269;22281;-87
2023/08/21 09:32:22;;;;;;;20.80;16.00;;;;;;;26.50;93.79;99636.43;271867;1269;22546;-87
2023/08/21 09:38:26;;;;;;;24.20;17.50;;;;;;;26.69;93.17;99627.34;270521;1269;22548;-88
2023/08/21 09:44:28;;;;;;;21.10;16.60;;;;;;;26.77;92.83;99623.72;270244;1269;24219;-86
2023/08/21 09:50:30;;;;;;;24.20;18.30;;;;;;;26.69;92.81;99615.85;271899;1269;22363;-87
2023/08/21 09:56:33;;;;;;;28.60;18.40;;;;;;;26.61;92.53;99611.73;270382;1269;22508;-86
2023/08/21 10:02:35;;;;;;;23.40;18.30;;;;;;;26.47;91.93;99613.94;269294;1269;22528;-87
2023/08/21 10:08:41;;;;;;;28.80;19.60;;;;;;;26.29;91.76;99617.04;269521;1269;22520;-86
2023/08/21 10:14:43;;;;;;;26.40;21.10;;;;;;;26.07;92.23;99609.34;269297;1269;22595;-86
2023/08/21 10:20:45;;;;;;;27.60;19.90;;;;;;;26.32;92.71;99603.20;269650;1269;25488;-86
2023/08/21 10:26:47;;;;;;;28.90;20.10;;;;;;;26.63;91.32;99595.60;270106;1269;22319;-86
2023/08/21 10:32:59;;;;;;;24.80;19.70;;;;;;;26.90;90.69;99591.45;270759;1269;22172;-88
2023/08/21 10:39:01;;;;;;;28.00;20.70;;;;;;;27.09;89.40;99588.17;270391;1269;22424;-87
2023/08/21 10:45:11;;;;;;;29.10;21.00;;;;;;;27.06;88.51;99588.56;269712;1269;23656;-88
2023/08/21 10:51:13;;;;;;;31.60;21.20;;;;;;;26.94;88.87;99589.71;270025;1269;22552;-89
2023/08/21 10:57:15;;;;;;;29.70;21.10;;;;;;;27.12;89.36;99582.89;272271;1269;22313;-86
2023/08/21 11:03:17;;;;;;;30.80;21.80;;;;;;;27.59;89.25;99582.52;273036;1269;22214;-89
2023/08/21 11:09:19;;;;;;;29.50;21.00;;;;;;;28.28;88.26;99585.98;273217;1269;22313;-88
2023/08/21 11:15:24;;;;;;;28.40;19.60;;;;;;;28.72;85.69;99579.16;273178;1269;23248;-86
2023/08/21 11:21:26;;;;;;;25.40;19.60;;;;;;;29.06;83.21;99577.55;272890;1269;22443;-87
2023/08/21 11:27:28;;;;;;;35.60;20.20;;;;;;;29.15;81.57;99583.95;272969;1268;22176;-86
2023/08/21 11:33:31;;;;;;;28.40;19.30;;;;;;;29.02;81.00;99584.44;273040;1269;22957;-87
2023/08/21 11:39:43;;;;;;;26.60;17.90;;;;;;;29.25;80.62;99576.23;273107;1269;22335;-86
2023/08/21 11:45:50;;;;;;;24.50;18.70;;;;;;;29.47;80.09;99570.11;273256;1269;22433;-87
2023/08/21 11:51:52;;;;;;;24.50;18.50;;;;;;;29.59;79.11;99568.05;273288;1269;22883;-87
2023/08/21 11:57:54;;;;;;;27.70;18.70;;;;;;;29.56;77.95;99560.38;273678;1257;23095;-86
2023/08/21 12:03:56;;;;;;;23.90;17.30;;;;;;;29.37;77.65;99557.41;273399;1269;22362;-87
2023/08/21 12:09:58;;;;;;;19.60;16.30;;;;;;;29.28;76.53;99557.67;273263;1269;22490;-87
2023/08/21 12:16:00;;;;;;;21.50;16.80;;;;;;;29.25;75.49;99544.40;272155;1269;22906;-86
2023/08/21 12:22:04;;;;;;;18.90;14.80;;;;;;;29.12;74.79;99539.98;270525;1269;24250;-87
2023/08/21 12:28:06;;;;;;;17.10;14.90;;;;;;;28.95;75.56;99537.27;270504;1269;22822;-87
2023/08/21 12:34:08;;;;;;;19.10;14.00;;;;;;;28.74;74.69;99531.21;273152;1269;22968;-87
2023/08/21 12:40:10;;;;;;;17.60;14.40;;;;;;;28.57;74.21;99527.72;273107;1269;22961;-87
2023/08/21 12:46:12;;;;;;;16.90;14.80;;;;;;;28.41;73.96;99529.44;272823;1269;23850;-88
2023/08/21 12:52:14;;;;;;;15.80;13.10;;;;;;;28.14;74.55;99539.02;273091;1269;22425;-87
2023/08/21 12:58:18;;;;;;;16.90;14.00;;;;;;;27.88;75.10;99531.30;273117;1266;22206;-87
2023/08/21 13:04:20;;;;;;;15.50;13.10;;;;;;;27.68;75.35;99530.08;273205;1269;23097;-87
2023/08/21 13:10:22;;;;;;;18.90;15.20;;;;;;;27.59;75.97;99527.63;273093;1269;23973;-87
2023/08/21 13:16:24;;;;;;;19.40;15.20;;;;;;;27.57;76.88;99520.77;270892;1266;22550;-87
2023/08/21 13:22:26;;;;;;;20.60;16.60;;;;;;;27.63;77.74;99518.98;271550;1269;22246;-87
2023/08/21 13:28:28;;;;;;;22.20;15.50;;;;;;;27.72;78.33;99516.80;273231;1269;22190;-86
2023/08/21 13:34:30;;;;;;;21.60;15.00;;;;;;;27.89;77.90;99509.17;273389;1269;23472;-87
2023/08/21 13:40:32;;;;;;;15.30;13.60;;;;;;;28.04;78.33;99501.35;273334;1269;24199;-87
2023/08/21 13:46:35;;;;;;;18.20;14.10;;;;;;;28.03;78.71;99492.95;271495;1269;22272;-88
2023/08/21 13:52:39;;;;;;;18.00;13.10;;;;;;;27.99;77.77;99488.61;269430;1267;22597;-88
2023/08/21 13:58:41;;;;;;;18.50;13.30;;;;;;;27.97;76.95;99484.44;269977;1266;24374;-87
2023/08/21 14:04:43;;;;;;;14.60;12.20;;;;;;;27.99;77.19;99474.75;272562;1256;22689;-87
2023/08/21 14:10:45;;;;;;;15.70;13.90;;;;;;;27.95;77.54;99465.94;271410;1269;22680;-88
2023/08/21 14:16:47;;;;;;;13.80;12.40;;;;;;;27.91;77.30;99459.13;271527;1269;22218;-87
2023/08/21 14:22:49;;;;;;;19.00;13.10;;;;;;;27.84;76.79;99451.14;273070;1269;23476;-88
2023/08/21 14:28:51;;;;;;;16.80;12.20;;;;;;;27.84;77.21;99443.92;273075;1269;22160;-87
2023/08/21 14:34:53;;;;;;;14.10;12.30;;;;;;;27.78;76.81;99436.79;273149;1269;23740;-86
2023/08/21 14:40:55;;;;;;;16.90;13.20;;;;;;;27.73;77.07;99434.04;273301;1269;22400;-89
2023/08/21 14:46:58;;;;;;;14.30;12.60;;;;;;;27.66;77.62;99427.20;273124;1269;23342;-86
2023/08/21 14:52:59;;;;;;;15.20;12.00;;;;;;;27.61;78.12;99422.77;273140;1269;24153;-88
2023/08/21 14:59:02;;;;;;;15.80;13.50;;;;;;;27.58;78.26;99423.61;273306;1269;22208;-86
2023/08/21 15:05:14;;;;;;;18.70;14.00;;;;;;;27.58;79.01;99428.21;273081;1269;22444;-87
2023/08/21 15:11:16;;;;;;;15.90;13.50;;;;;;;27.52;78.68;99425.14;273113;1269;22117;-86
2023/08/21 15:17:18;;;;;;;18.60;14.40;;;;;;;27.49;79.28;99426.42;273048;1269;22253;-87
2023/08/21 15:23:20;;;;;;;15.60;13.80;;;;;;;27.47;79.54;99425.35;271539;1269;22531;-87
2023/08/21 15:29:23;;;;;;;16.10;13.20;;;;;;;27.44;79.66;99423.30;272494;1269;23192;-87
2023/08/21 15:35:25;;;;;;;16.10;13.90;;;;;;;27.38;79.62;99418.98;272964;1269;22118;-86
2023/08/21 15:41:27;;;;;;;19.20;13.50;;;;;;;27.37;79.29;99413.39;273328;1269;22336;-87
2023/08/21 15:47:30;;;;;;;15.10;13.50;;;;;;;27.48;79.04;99406.88;273151;1269;22211;-87
2023/08/21 15:53:31;;;;;;;15.50;13.90;;;;;;;27.50;79.17;99401.71;273145;1269;22513;-87
2023/08/21 15:59:33;;;;;;;15.70;14.00;;;;;;;27.44;79.71;99401.63;273264;1269;23342;-87
2023/08/21 16:05:36;;;;;;;17.00;13.00;;;;;;;27.35;79.62;99404.88;273154;1269;22414;-86
2023/08/21 16:11:37;;;;;;;17.40;12.90;;;;;;;27.31;79.50;99404.78;272947;1269;258980;-87
2023/08/21 16:17:39;;;;;;;17.10;13.20;;;;;;;27.27;79.77;99406.69;273400;1269;22264;-87
2023/08/21 16:23:41;;;;;;;15.50;12.70;;;;;;;27.27;79.87;99410.14;273015;1269;22510;-87
2023/08/21 16:29:43;;;;;;;20.60;14.40;;;;;;;27.28;80.10;99409.10;270653;1269;23738;-87
2023/08/21 16:35:45;;;;;;;18.00;14.10;;;;;;;27.32;79.98;99412.55;272194;1269;22216;-86
2023/08/21 16:41:47;;;;;;;17.30;14.10;;;;;;;27.28;80.04;99410.33;273290;1269;22377;-85
2023/08/21 16:47:49;;;;;;;20.90;15.10;;;;;;;27.22;80.51;99407.05;273240;1269;23367;-86
2023/08/21 17:01:46;;;;;;;17.10;12.80;;;;;;;27.06;80.95;99398.40;271628;1269;25075;-86
2023/08/21 17:07:48;;;;;;;14.80;13.30;;;;;;;26.93;80.92;99395.10;271310;1269;22576;-87
2023/08/21 17:13:50;;;;;;;16.50;14.10;;;;;;;26.81;81.44;99395.98;272793;1269;22317;-87
2023/08/21 17:19:51;;;;;;;71.00;28.70;;;;;;;26.70;82.05;99390.20;272968;1269;22437;-88
2023/08/21 17:25:54;;;;;;;37.80;20.30;;;;;;;26.61;83.00;99401.70;273019;1269;22318;-86
2023/08/21 17:31:55;;;;;;;19.50;17.00;;;;;;;26.49;83.67;99402.41;271869;1269;22312;-86
2023/08/21 17:38:06;;;;;;;20.30;15.40;;;;;;;26.33;84.80;99407.05;271547;1269;22836;-86
2023/08/21 17:52:04;;;;;;;18.30;15.80;;;;;;;25.85;87.14;99420.48;271820;1259;22765;-86
2023/08/21 17:58:12;;;;;;;21.20;15.70;;;;;;;25.55;87.82;99438.77;273640;1270;22201;-86
2023/08/21 18:04:41;;;;;;;20.10;16.40;;;;;;;25.30;89.24;99453.73;272084;1269;22681;-86
2023/08/21 18:10:46;;;;;;;23.50;17.20;;;;;;;25.21;90.68;99457.96;271844;1269;22197;-86
2023/08/21 18:16:49;;;;;;;23.80;17.80;;;;;;;25.09;91.12;99460.70;273682;1270;22463;-86
2023/08/21 18:23:40;;;;;;;17.30;15.50;;;;;;;24.95;91.92;99459.00;273037;1269;22813;-87
2023/08/21 18:30:16;;;;;;;17.10;14.90;;;;;;;24.86;92.29;99468.88;273805;1269;22174;-87
2023/08/21 18:44:46;;;;;;;18.70;15.60;;;;;;;24.76;93.46;99471.94;273390;1276;22514;-87
2023/08/21 18:50:50;;;;;;;18.30;15.50;;;;;;;24.74;94.00;99475.30;270804;1263;23907;-87
2023/08/21 18:56:56;;;;;;;19.00;15.90;;;;;;;24.64;94.71;99475.23;270322;1262;22556;-87
2023/08/21 19:03:23;;;;;;;17.00;15.10;;;;;;;24.53;95.06;99483.98;271753;1269;22565;-86
2023/08/21 19:09:50;;;;;;;15.20;13.70;;;;;;;24.36;95.63;99493.08;270683;1269;22262;-86
2023/08/21 19:15:52;;;;;;;17.30;15.50;;;;;;;24.17;96.06;99502.73;273456;1277;23293;-86
2023/08/21 19:21:58;;;;;;;17.00;13.40;;;;;;;24.05;97.02;99509.01;273764;1276;22234;-86
2023/08/21 19:28:25;;;;;;;16.70;14.00;;;;;;;24.04;98.16;99516.22;273674;1270;22190;-86
2023/08/21 19:34:36;;;;;;;15.80;14.00;;;;;;;24.06;98.67;99521.33;273549;1270;22436;-87
2023/08/21 19:41:10;;;;;;;17.00;14.00;;;;;;;24.09;99.29;99522.50;273419;1273;22157;-87
2023/08/21 19:47:38;;;;;;;17.40;14.10;;;;;;;24.09;99.82;99528.84;273634;1270;22170;-87
2023/08/21 19:54:31;;;;;;;18.60;15.20;;;;;;;23.99;99.92;99532.13;273106;1271;22425;-86
2023/08/21 20:00:40;;;;;;;17.60;15.80;;;;;;;23.85;100.00;99526.94;273524;1278;23468;-86
2023/08/21 20:06:42;;;;;;;18.00;15.30;;;;;;;23.72;100.00;99530.66;273264;1269;22544;-86
2023/08/21 20:13:33;;;;;;;20.70;16.80;;;;;;;23.59;100.00;99530.98;273217;1267;22211;-86
2023/08/21 20:19:35;;;;;;;17.90;16.10;;;;;;;23.45;100.00;99531.92;273467;1273;22172;-86
2023/08/21 20:25:45;;;;;;;21.10;16.40;;;;;;;23.33;100.00;99537.77;270332;1269;22552;-86
2023/08/21 20:31:47;;;;;;;19.10;17.00;;;;;;;23.20;100.00;99541.51;264130;1269;10001304;-87
2023/08/21 20:37:49;;;;;;;20.90;16.60;;;;;;;23.03;100.00;99541.86;271057;1264;22337;-86
2023/08/21 20:44:41;;;;;;;19.90;16.70;;;;;;;22.93;100.00;99540.83;273529;1269;22189;-86
2023/08/21 20:51:08;;;;;;;20.30;18.10;;;;;;;22.84;100.00;99544.73;273548;1278;22174;-86
2023/08/21 20:57:46;;;;;;;25.00;19.30;;;;;;;22.74;100.00;99543.84;273600;1277;22224;-86
2023/08/21 21:03:48;;;;;;;23.00;18.10;;;;;;;22.64;100.00;99541.61;271990;1269;22544;-86
2023/08/21 21:09:50;;;;;;;21.30;17.40;;;;;;;22.56;100.00;99546.45;270073;1269;22528;-87
2023/08/21 21:16:04;;;;;;;16.30;14.60;;;;;;;22.45;100.00;99548.11;270948;1269;22178;-87
2023/08/21 21:30:11;;;;;;;17.30;15.50;;;;;;;22.26;100.00;99554.05;272394;1276;23887;-87
2023/08/21 21:36:12;;;;;;;17.00;14.50;;;;;;;22.13;100.00;99558.46;269330;1267;22550;-86
2023/08/21 21:42:14;;;;;;;20.90;17.20;;;;;;;22.07;100.00;99570.02;269602;1275;25372;-86
2023/08/21 21:48:16;;;;;;;20.90;18.00;;;;;;;22.05;100.00;99576.27;269914;1275;25407;-86
2023/08/21 21:54:18;;;;;;;20.40;16.30;;;;;;;22.09;100.00;99571.87;269485;1275;22259;-86
2023/08/21 22:01:15;;;;;;;19.30;16.70;;;;;;;22.10;100.00;99566.99;272616;1277;23053;-86
2023/08/21 22:07:18;;;;;;;20.60;17.80;;;;;;;22.02;100.00;99570.70;272632;1280;23174;-86
2023/08/21 22:14:09;;;;;;;19.30;16.60;;;;;;;21.98;100.00;99569.05;272570;1275;22947;-86
2023/08/21 22:20:15;;;;;;;17.20;15.30;;;;;;;21.88;100.00;99571.55;271585;1278;22675;-86
2023/08/21 22:26:17;;;;;;;18.80;16.80;;;;;;;21.76;100.00;99574.88;269635;1270;23031;-87
2023/08/21 22:40:14;;;;;;;21.50;17.80;;;;;;;21.58;100.00;99572.42;272876;1271;22290;-86
2023/08/21 22:46:28;;;;;;;19.80;17.20;;;;;;;21.50;100.00;99566.80;273634;1270;22241;-86
2023/08/21 22:52:56;;;;;;;24.70;18.10;;;;;;;21.48;100.00;99567.01;273701;1278;22278;-86
2023/08/21 22:59:23;;;;;;;20.80;18.00;;;;;;;21.39;100.00;99571.19;272701;1270;23062;-86
2023/08/21 23:05:25;;;;;;;21.00;18.50;;;;;;;21.25;100.00;99571.30;273613;1272;22219;-86
2023/08/21 23:18:48;;;;;;;21.50;17.60;;;;;;;21.07;100.00;99563.11;273703;1277;23146;-86
2023/08/21 23:25:15;;;;;;;23.70;18.40;;;;;;;21.01;100.00;99563.48;272385;1270;23950;-86
2023/08/21 23:31:18;;;;;;;24.80;18.10;;;;;;;20.94;100.00;99553.50;272877;1262;23389;-86
2023/08/21 23:37:44;;;;;;;19.60;16.40;;;;;;;20.88;100.00;99554.27;273098;1272;22186;-85
2023/08/21 23:44:11;;;;;;;21.90;17.90;;;;;;;20.79;100.00;99548.19;273492;1270;22212;-85
2023/08/21 23:50:16;;;;;;;17.70;15.10;;;;;;;20.70;100.00;99544.48;273162;1272;22688;-85
2023/08/21 23:56:23;;;;;;;19.90;17.30;;;;;;;20.61;100.00;99539.73;273278;1278;23152;-85
